This is the latest recevied weather packets stored in our database for station/object W0VI. If no packets are shown the sender has not sent any weather packets the latest 1 day(s).
| Time | Temp. | Humidity | Pressure | Rain* | Wind** | Luminosity | Snow |
|---|---|---|---|---|---|---|---|
| 1778029831 | 7.22° C | 47% | 1011.7 hPa | 0 mm | 1.79 m/s, 296° | 7 W/m² | - |
| 1778029530 | 7.22° C | 46% | 1011.6 hPa | 0 mm | 0.89 m/s, 354° | 10 W/m² | - |
| 1778029226 | 7.22° C | 46% | 1011.3 hPa | 0 mm | 2.24 m/s, 268° | 13 W/m² | - |
| 1778028923 | 7.22° C | 46% | 1011.7 hPa | 0 mm | 0.89 m/s, 281° | 13 W/m² | - |
| 1778028619 | 7.78° C | 46% | 1011.5 hPa | 0 mm | 3.13 m/s, 305° | 18 W/m² | - |
| 1778028317 | 7.78° C | 45% | 1011.5 hPa | 0 mm | 0.45 m/s, 1° | 26 W/m² | - |
| 1778028013 | 7.78° C | 45% | 1011.5 hPa | 0 mm | 2.24 m/s, 350° | 30 W/m² | - |
| 1778027710 | 7.78° C | 45% | 1011.3 hPa | 0 mm | 2.68 m/s, 303° | 29 W/m² | - |
| 1778027406 | 7.78° C | 45% | 1011.3 hPa | 0 mm | 2.24 m/s, 327° | 27 W/m² | - |
| 1778027102 | 7.78° C | 45% | 1011.1 hPa | 0 mm | 2.68 m/s, 292° | 32 W/m² | - |
| 1778026797 | 7.78° C | 45% | 1011.1 hPa | 0 mm | 2.24 m/s, 341° | 34 W/m² | - |
| 1778026494 | 8.33° C | 45% | 1011.3 hPa | 0 mm | 0.89 m/s, 8° | 43 W/m² | - |
| 1778026192 | 8.33° C | 44% | 1011.1 hPa | 0 mm | 4.02 m/s, 329° | 66 W/m² | - |
| 1778025889 | 8.89° C | 44% | 1011.1 hPa | 0 mm | 1.34 m/s, 285° | 58 W/m² | - |
| 1778025586 | 8.89° C | 43% | 1011.2 hPa | 0 mm | 2.24 m/s, 340° | 66 W/m² | - |
| 1778025284 | 8.89° C | 43% | 1011 hPa | 0 mm | 2.68 m/s, 301° | 72 W/m² | - |
| 1778024981 | 8.89° C | 42% | 1010.9 hPa | 0 mm | 3.13 m/s, 286° | 84 W/m² | - |
| 1778024678 | 8.89° C | 42% | 1011 hPa | 0 mm | 2.24 m/s, 264° | 122 W/m² | - |
| 1778024374 | 8.89° C | 42% | 1011 hPa | 0 mm | 1.79 m/s, 257° | 82 W/m² | - |
| 1778024072 | 9.44° C | 41% | 1010.7 hPa | 0 mm | 4.02 m/s, 287° | 95 W/m² | - |
| 1778023770 | 9.44° C | 41% | 1010.5 hPa | 0 mm | 1.79 m/s, 322° | 105 W/m² | - |
| 1778023468 | 8.89° C | 42% | 1010.8 hPa | 0 mm | 1.34 m/s, 312° | 120 W/m² | - |
| 1778023164 | 8.89° C | 42% | 1010.6 hPa | 0 mm | 2.68 m/s, 273° | 84 W/m² | - |
| 1778022862 | 8.89° C | 42% | 1010.6 hPa | 0 mm | 2.24 m/s, 21° | 82 W/m² | - |
| 1778022560 | 9.44° C | 42% | 1010.6 hPa | 0 mm | 1.79 m/s, 332° | 89 W/m² | - |
* Rain latest hour (hover to see other rain measurements)
** Current wind speed in m/s (hover to see current wind gust speed)